createdAt,value
2016-07-11T13:24:36.692Z,65.3
2016-07-11T13:25:36.643Z,64.92
2016-07-11T13:26:36.626Z,64.72
2016-07-11T13:27:36.617Z,64.05
2016-07-11T13:28:36.607Z,64.63
2016-07-11T13:29:36.611Z,64.92
2016-07-11T13:30:36.599Z,65.01
2016-07-11T13:31:36.592Z,65.2
2016-07-11T13:32:36.588Z,64.05
2016-07-11T13:33:36.586Z,64.4
2016-07-11T13:34:36.583Z,65.78
2016-07-11T13:35:36.571Z,64.43
2016-07-11T13:36:36.590Z,65.3
2016-07-11T13:37:36.567Z,65.88
2016-07-11T13:38:36.565Z,65.78
2016-07-11T13:39:36.561Z,65.2
2016-07-11T13:40:36.559Z,63.47
2016-07-11T13:41:36.570Z,62.02
2016-07-11T13:42:36.564Z,61.25
2016-07-11T13:43:36.550Z,60.69
2016-07-11T13:44:36.560Z,60.5
2016-07-11T13:45:36.745Z,60.6
2016-07-11T13:46:36.743Z,60.69
2016-07-11T13:47:36.554Z,60.11
2016-07-11T13:48:36.542Z,60.02
2016-07-11T13:49:36.547Z,59.53
2016-07-11T13:50:36.538Z,59.05
2016-07-11T13:51:36.539Z,59.25
2016-07-11T13:52:36.540Z,59.44
2016-07-11T13:53:36.540Z,59.25
2016-07-11T13:54:36.538Z,59.25
2016-07-11T13:55:36.534Z,59.53
2016-07-11T13:56:36.532Z,59.47
2016-07-11T13:57:36.528Z,59.38
2016-07-11T13:58:36.533Z,59.28
2016-07-11T13:59:36.526Z,59.28
2016-07-11T14:00:36.533Z,59.38
2016-07-11T14:01:36.537Z,59.38
2016-07-11T14:02:36.530Z,59.18
2016-07-11T14:03:36.530Z,59.18
2016-07-11T14:04:36.530Z,59.28
2016-07-11T14:05:36.531Z,59.18
2016-07-11T14:06:36.542Z,59.21
2016-07-11T14:07:36.529Z,58.92
2016-07-11T14:08:36.530Z,58.6
2016-07-11T14:09:36.529Z,57.95
2016-07-11T14:10:36.530Z,57.28
2016-07-11T14:11:36.528Z,57.56
2016-07-11T14:12:36.529Z,58.14
2016-07-11T14:13:36.534Z,57.95
2016-07-11T14:14:36.535Z,58.14
2016-07-11T14:15:36.538Z,58.24
2016-07-11T14:16:36.533Z,58.24
2016-07-11T14:17:36.531Z,58.14
2016-07-11T14:18:36.532Z,57.76
2016-07-11T14:19:36.535Z,58.14
2016-07-11T14:20:36.534Z,58.44
2016-07-11T14:21:36.535Z,58.72
2016-07-11T14:22:36.763Z,58.72
2016-07-11T14:23:36.786Z,58.82
2016-07-11T14:24:36.890Z,59.01
2016-07-11T14:25:36.738Z,59.01
2016-07-11T14:26:36.978Z,58.92
2016-07-11T14:27:36.636Z,58.53
2016-07-11T14:28:36.800Z,58.92
2016-07-11T14:29:36.743Z,58.34
2016-07-11T14:30:36.776Z,58.14
2016-07-11T14:31:36.846Z,58.14
2016-07-11T14:32:36.893Z,58.34
2016-07-11T14:33:36.774Z,58.82
2016-07-11T14:34:36.798Z,59.11
2016-07-11T14:35:36.849Z,59.05
2016-07-11T14:36:36.548Z,58.75
2016-07-11T14:37:36.545Z,58.56
2016-07-11T14:38:36.544Z,58.75
2016-07-11T14:39:36.548Z,58.95
2016-07-11T14:40:36.549Z,58.95
2016-07-11T14:41:36.553Z,58.95
2016-07-11T14:42:36.552Z,58.37
2016-07-11T14:43:36.553Z,58.37
2016-07-11T14:44:36.766Z,58.17
2016-07-11T14:45:36.553Z,58.07
2016-07-11T14:46:36.554Z,58.56
2016-07-11T14:47:36.852Z,57.98
2016-07-11T14:48:36.805Z,58.17
2016-07-11T14:49:36.803Z,58.17
2016-07-11T14:50:36.850Z,57.88
2016-07-11T14:51:36.823Z,58.27
2016-07-11T14:52:36.849Z,58.17
2016-07-11T14:53:36.883Z,57.79
2016-07-11T14:54:36.573Z,57.88
2016-07-11T14:55:36.568Z,57.88
2016-07-11T14:56:36.572Z,57.79
2016-07-11T14:57:36.785Z,57.59
2016-07-11T14:58:36.779Z,57.2
2016-07-11T14:59:36.590Z,56.82
2016-07-11T15:00:36.580Z,56.92
2016-07-11T15:01:36.796Z,56.62
2016-07-11T15:02:36.581Z,57.2
2016-07-11T15:03:36.790Z,57.2
2016-07-11T15:04:36.588Z,57.11
2016-07-11T15:05:36.591Z,57.2
2016-07-11T15:06:36.587Z,57.11
2016-07-11T15:07:36.586Z,57.2
2016-07-11T15:08:36.590Z,57.11
2016-07-11T15:09:36.606Z,57.59
2016-07-11T15:10:36.794Z,57.01
2016-07-11T15:11:36.589Z,57.2
2016-07-11T15:12:36.597Z,57.11
2016-07-11T15:13:36.598Z,57.3
2016-07-11T15:14:36.601Z,57.4
2016-07-11T15:15:36.599Z,57.4
2016-07-11T15:16:36.603Z,57.14
2016-07-11T15:17:36.612Z,57.33
2016-07-11T15:18:36.607Z,57.2
2016-07-11T15:19:36.606Z,57.3
2016-07-11T15:20:36.607Z,57.33
2016-07-11T15:21:36.611Z,56.46
2016-07-11T15:22:36.617Z,56.43
2016-07-11T15:23:36.613Z,55.94
2016-07-11T15:24:36.612Z,55.76
2016-07-11T15:25:36.625Z,56.04
2016-07-11T15:26:36.619Z,56.46
2016-07-11T15:27:36.618Z,56.43
2016-07-11T15:28:36.620Z,56.92
2016-07-11T15:29:36.619Z,57.3
2016-07-11T15:30:36.634Z,57.14
2016-07-11T15:31:36.626Z,57.33
2016-07-11T15:32:36.632Z,57.3
2016-07-11T15:33:36.821Z,57.01
2016-07-11T15:34:36.977Z,57.01
2016-07-11T15:35:36.778Z,57.3
2016-07-11T15:36:36.999Z,57.11
2016-07-11T15:37:36.633Z,56.94
2016-07-11T15:38:36.630Z,56.75
2016-07-11T15:39:37.080Z,56.62
2016-07-11T15:40:36.949Z,56.72
2016-07-11T15:41:36.826Z,56.52
2016-07-11T15:42:36.638Z,56.65
2016-07-11T15:43:36.638Z,56.65
2016-07-11T15:44:36.638Z,57.53
2016-07-11T15:45:36.650Z,56.85
2016-07-11T15:46:36.854Z,57.33
2016-07-11T15:47:37.013Z,57.14
2016-07-11T15:48:36.929Z,57.14
2016-07-11T15:49:36.647Z,57.33
2016-07-11T15:50:37.207Z,57.43
2016-07-11T15:51:36.769Z,57.62
2016-07-11T15:52:36.780Z,57.43
2016-07-11T15:53:36.654Z,57.33
2016-07-11T15:54:36.659Z,57.04
2016-07-11T15:55:36.652Z,57.14
2016-07-11T15:56:36.661Z,57.14
2016-07-11T15:57:36.858Z,57.43
2016-07-11T15:58:36.661Z,57.23
2016-07-11T15:59:36.867Z,57.33
2016-07-11T16:00:36.667Z,56.75
2016-07-11T16:01:36.671Z,56.46
2016-07-11T16:02:36.665Z,57.04
2016-07-11T16:03:36.674Z,57.04
2016-07-11T16:04:36.674Z,56.46
2016-07-11T16:05:36.882Z,56.75
2016-07-11T16:06:36.676Z,56.65
2016-07-11T16:07:36.685Z,57.23
2016-07-11T16:08:36.675Z,57.33
2016-07-11T16:09:36.682Z,57.33
2016-07-11T16:10:36.690Z,57.14
2016-07-11T16:11:36.684Z,56.94
2016-07-11T16:12:36.884Z,56.56
2016-07-11T16:13:36.685Z,55.98
2016-07-11T16:14:36.685Z,55.88
2016-07-11T16:15:36.702Z,55.78
2016-07-11T16:16:36.893Z,55.4
2016-07-11T16:17:36.695Z,55.98
2016-07-11T16:18:36.692Z,55.98
2016-07-11T16:19:36.892Z,55.88
2016-07-11T16:20:36.694Z,55.98
2016-07-11T16:21:36.703Z,55.88
2016-07-11T16:22:36.705Z,55.98
2016-07-11T16:23:36.704Z,55.98
2016-07-11T16:24:36.702Z,55.88
2016-07-11T16:25:36.707Z,56.07
2016-07-11T16:26:36.705Z,55.98
2016-07-11T16:27:36.709Z,55.98
2016-07-11T16:28:36.883Z,55.98
2016-07-11T16:29:36.992Z,56.36
2016-07-11T16:30:37.061Z,55.88
2016-07-11T16:31:36.936Z,55.88
2016-07-11T16:32:36.917Z,56.07
2016-07-11T16:33:36.738Z,55.98
2016-07-11T16:34:36.741Z,56.16
2016-07-11T16:35:37.037Z,55.98
2016-07-11T16:36:36.765Z,56.07
2016-07-11T16:37:37.032Z,56.16
2016-07-11T16:38:36.905Z,56.16
2016-07-11T16:39:37.054Z,56.65
2016-07-11T16:40:36.949Z,56.26
2016-07-11T16:41:37.042Z,56.1
2016-07-11T16:42:36.959Z,55.68
2016-07-11T16:43:36.942Z,55.2
2016-07-11T16:44:36.737Z,54.91
2016-07-11T16:45:36.735Z,54.91
2016-07-11T16:46:36.736Z,55.52
2016-07-11T16:47:36.741Z,54.71
2016-07-11T16:48:36.940Z,54.52
2016-07-11T16:49:36.741Z,54.23
2016-07-11T16:50:36.742Z,54.13
2016-07-11T16:51:36.744Z,54.52
2016-07-11T16:52:36.749Z,53.94
2016-07-11T16:53:36.756Z,54.03
2016-07-11T16:54:36.745Z,54.33
2016-07-11T16:55:36.751Z,53.85
2016-07-11T16:56:36.751Z,53.67
2016-07-11T16:57:36.758Z,53.94
2016-07-11T16:58:36.756Z,53.75
2016-07-11T16:59:36.754Z,53.55
2016-07-11T17:00:36.757Z,53.26
2016-07-11T17:01:36.964Z,53.36
2016-07-11T17:02:37.164Z,53.39
2016-07-11T17:03:36.786Z,53.26
2016-07-11T17:04:36.767Z,53.36
2016-07-11T17:05:36.776Z,53.85
2016-07-11T17:06:36.772Z,53.29
2016-07-11T17:07:36.773Z,53.17
2016-07-11T17:08:36.771Z,53.29
2016-07-11T17:09:36.779Z,53.17
2016-07-11T17:10:36.775Z,53.75
2016-07-11T17:11:36.779Z,53.29
2016-07-11T17:12:36.781Z,53.45
2016-07-11T17:13:36.782Z,53.26
2016-07-11T17:14:36.791Z,53.26
2016-07-11T17:15:36.980Z,53.75
2016-07-11T17:16:36.782Z,53.77
2016-07-11T17:17:36.786Z,53.85
2016-07-11T17:18:36.793Z,53.85
2016-07-11T17:19:36.792Z,53.67
2016-07-11T17:20:36.797Z,54.03
2016-07-11T17:21:36.795Z,53.77
2016-07-11T17:22:36.798Z,53.97
2016-07-11T17:23:36.797Z,53.77
2016-07-11T17:24:36.805Z,54.03
2016-07-11T17:25:36.800Z,53.55
2016-07-11T17:26:36.802Z,53.58
2016-07-11T17:27:36.813Z,53.58
2016-07-11T17:28:36.808Z,53.85
2016-07-11T17:29:36.814Z,53.65
2016-07-11T17:30:36.810Z,53.55
2016-07-11T17:31:36.823Z,53.49
2016-07-11T17:32:36.817Z,53.39
2016-07-11T17:33:36.821Z,53.45
2016-07-11T17:34:36.822Z,53.39
2016-07-11T17:35:36.824Z,53.39
2016-07-11T17:36:37.027Z,53.39
2016-07-11T17:37:36.826Z,53.67
2016-07-11T17:38:36.830Z,53.77
2016-07-11T17:39:36.831Z,53.58
2016-07-11T17:40:36.833Z,53.97
2016-07-11T17:41:37.366Z,53.75
2016-07-11T17:42:37.000Z,54.06
2016-07-11T17:43:37.206Z,53.94
2016-07-11T17:44:37.045Z,54.06
2016-07-11T17:45:37.330Z,54.64
2016-07-11T17:46:36.992Z,54.55
2016-07-11T17:47:36.977Z,54.55
2016-07-11T17:48:36.852Z,54.55
2016-07-11T17:49:37.035Z,54.74
2016-07-11T17:50:36.881Z,54.35
2016-07-11T17:51:37.349Z,54.64
2016-07-11T17:52:36.858Z,54.55
2016-07-11T17:53:36.887Z,54.64
2016-07-11T17:54:36.859Z,54.35
2016-07-11T17:55:36.867Z,54.64
2016-07-11T17:56:36.872Z,54.45
2016-07-11T17:57:37.086Z,54.55
2016-07-11T17:58:36.867Z,54.55
2016-07-11T17:59:36.881Z,54.35
2016-07-11T18:00:36.878Z,54.55
2016-07-11T18:01:36.882Z,54.35
2016-07-11T18:02:36.878Z,54.06
2016-07-11T18:03:36.881Z,54.35
2016-07-11T18:04:36.886Z,54.26
2016-07-11T18:05:36.888Z,54.45
2016-07-11T18:06:36.892Z,54.28
2016-07-11T18:07:36.891Z,54.16
2016-07-11T18:08:36.894Z,54.26
2016-07-11T18:09:36.895Z,54.26
2016-07-11T18:10:36.902Z,54.19
2016-07-11T18:11:36.909Z,54.19
2016-07-11T18:12:36.907Z,54.09
2016-07-11T18:13:36.915Z,54.19
2016-07-11T18:14:36.913Z,54.48
2016-07-11T18:15:37.114Z,54.67
2016-07-11T18:16:36.917Z,54.86
2016-07-11T18:17:36.917Z,54.58
2016-07-11T18:18:36.918Z,54.67
2016-07-11T18:19:36.923Z,54.58
2016-07-11T18:20:36.927Z,54.48
2016-07-11T18:21:36.933Z,54.38
2016-07-11T18:22:36.942Z,53.89
2016-07-11T18:23:36.939Z,54.28
2016-07-11T18:24:36.935Z,54.19
2016-07-11T18:25:36.943Z,54.38
2016-07-11T18:26:36.943Z,54.28
2016-07-11T18:27:36.947Z,54.67
2016-07-11T18:28:36.943Z,54.48
2016-07-11T18:29:36.956Z,54.48
2016-07-11T18:30:36.956Z,54.58
2016-07-11T18:31:36.957Z,54.67
2016-07-11T18:32:36.958Z,54.77
2016-07-11T18:33:36.968Z,55.26
2016-07-11T18:34:36.966Z,54.94
2016-07-11T18:35:36.987Z,54.86
2016-07-11T18:36:36.974Z,54.55
2016-07-11T18:37:36.976Z,54.35
2016-07-11T18:38:36.977Z,54.35
2016-07-11T18:39:36.978Z,54.94
2016-07-11T18:40:36.987Z,54.64
2016-07-11T18:41:36.989Z,54.19
2016-07-11T18:42:36.986Z,54.16
2016-07-11T18:43:36.990Z,54.19
2016-07-11T18:44:36.995Z,54.45
2016-07-11T18:45:36.998Z,54.26
2016-07-11T18:46:36.997Z,55.04
2016-07-11T18:47:37.002Z,55.06
2016-07-11T18:48:37.005Z,55.22
2016-07-11T18:49:37.008Z,55.42
2016-07-11T18:50:37.010Z,55.22
2016-07-11T18:51:37.192Z,55.22
2016-07-11T18:52:37.015Z,55.22
2016-07-11T18:53:37.018Z,55.13
2016-07-11T18:54:37.014Z,55.04
2016-07-11T18:55:37.185Z,55.04
2016-07-11T18:56:37.027Z,55.1
2016-07-11T18:57:37.023Z,55.2
2016-07-11T18:58:37.227Z,55.22
2016-07-11T18:59:37.030Z,55.3
2016-07-11T19:00:37.025Z,55.58
2016-07-11T19:01:37.030Z,55.98
2016-07-11T19:02:37.034Z,56.65
2016-07-11T19:03:37.039Z,56.87
2016-07-11T19:04:37.036Z,56.85
2016-07-11T19:05:37.041Z,56.1
